Time;durP1;ratioP1;P1;durP2;ratioP2;P2;SDS_P1;SDS_P2;PMS_P1;PMS_P2;Temp;Humidity;BMP_temperature;BMP_pressure;BME280_temperature;BME280_humidity;BME280_pressure;Samples;Min_cycle;Max_cycle;Signal;HPM_P1;HPM_P2
2022/09/15 00:02:06;;;;;;;;;;;;;;;-142.75;100.00;76231.72;4993514;28;19968;-70
2022/09/15 00:04:31;;;;;;;;;;;;;;;-142.75;100.00;76227.78;4992591;28;20000;-69
2022/09/15 00:06:56;;;;;;;;;;;;;;;-142.75;100.00;76227.78;4991827;28;19968;-68
2022/09/15 00:09:22;;;;;;;;;;;;;;;-142.75;100.00;76227.78;4993398;28;19913;-69
2022/09/15 00:11:47;;;;;;;;;;;;;;;-142.75;100.00;76217.94;4992517;28;19953;-69
2022/09/15 00:14:12;;;;;;;;;;;;;;;-142.75;100.00;76219.91;4993312;28;19921;-69
2022/09/15 00:16:38;;;;;;;;;;;;;;;-142.75;100.00;76219.91;4992985;28;20004;-70
2022/09/15 00:19:03;;;;;;;;;;;;;;;-142.75;100.00;76223.84;4993077;28;19957;-70
2022/09/15 00:21:30;;;;;;;;;;;;;;;-142.75;100.00;76225.81;4993257;28;19914;-69
2022/09/15 00:23:55;;;;;;;;;;;;;;;-142.75;100.00;76227.78;4975701;28;20431;-69
2022/09/15 00:26:22;;;;;;;;;;;;;;;-142.75;100.00;76225.81;4993116;28;20163;-69
2022/09/15 00:28:47;;;;;;;;;;;;;;;-142.75;100.00;76219.91;4975420;28;20398;-69
2022/09/15 00:31:14;;;;;;;;;;;;;;;-142.75;100.00;76219.91;4992966;28;19914;-70
2022/09/15 00:33:39;;;;;;;;;;;;;;;-142.75;100.00;76225.81;4992889;28;19941;-70
2022/09/15 00:36:06;;;;;;;;;;;;;;;-142.75;100.00;76227.78;4993054;28;19914;-69
2022/09/15 00:38:32;;;;;;;;;;;;;;;-142.75;100.00;76229.75;4992587;28;20092;-70
2022/09/15 00:40:58;;;;;;;;;;;;;;;-142.75;100.00;76221.88;4992861;28;19936;-69
2022/09/15 00:43:42;;;;;;;;;;;;;;;-142.75;100.00;76229.75;4992968;28;20368;-70
2022/09/15 00:46:08;;;;;;;;;;;;;;;-142.75;100.00;76241.56;4992768;28;19914;-70
2022/09/15 00:48:34;;;;;;;;;;;;;;;-142.75;100.00;76251.41;4992617;28;19925;-69
2022/09/15 00:51:01;;;;;;;;;;;;;;;-142.75;100.00;76237.63;4975352;28;20392;-69
2022/09/15 00:53:27;;;;;;;;;;;;;;;-142.75;100.00;76241.56;4992838;28;19914;-69
2022/09/15 00:55:53;;;;;;;;;;;;;;;-142.75;100.00;76239.59;4975385;28;19920;-69
2022/09/15 00:58:22;;;;;;;;;;;;;;;-142.75;100.00;76251.41;4992474;28;19917;-69
2022/09/15 01:00:54;;;;;;;;;;;;;;;-142.75;100.00;76271.09;4992565;28;20372;-69
2022/09/15 01:03:20;;;;;;;;;;;;;;;-142.75;100.00;76277.00;4992793;28;20395;-70
2022/09/15 01:05:49;;;;;;;;;;;;;;;-142.75;100.00;76286.84;4992679;28;19958;-70
2022/09/15 01:08:27;;;;;;;;;;;;;;;-142.75;100.00;76292.75;4992372;28;20020;-70
2022/09/15 01:10:52;;;;;;;;;;;;;;;-142.75;100.00;76298.66;4992601;28;19922;-69
2022/09/15 01:13:18;;;;;;;;;;;;;;;-142.75;100.00;76302.59;4992853;28;19962;-69
2022/09/15 01:15:43;;;;;;;;;;;;;;;-142.75;100.00;76300.63;4992909;28;19960;-69
2022/09/15 01:18:17;;;;;;;;;;;;;;;-142.75;100.00;76302.59;4992460;28;19918;-68
2022/09/15 01:21:05;;;;;;;;;;;;;;;-142.75;100.00;76294.72;4992598;28;19914;-70
2022/09/15 01:23:30;;;;;;;;;;;;;;;-142.75;100.00;76306.53;4987542;28;19913;-69
2022/09/15 01:26:02;;;;;;;;;;;;;;;-142.75;100.00;76308.50;4979049;28;19925;-69
2022/09/15 01:28:29;;;;;;;;;;;;;;;-142.75;100.00;76308.50;4996084;28;20348;-70
2022/09/15 01:31:16;;;;;;;;;;;;;;;-142.75;100.00;76296.69;4996313;28;19926;-68
2022/09/15 01:33:48;;;;;;;;;;;;;;;-142.75;100.00;76292.75;4996278;28;20012;-69
2022/09/15 01:36:16;;;;;;;;;;;;;;;-142.75;100.00;76284.88;4979225;28;19921;-69
2022/09/15 01:38:46;;;;;;;;;;;;;;;-142.75;100.00;76278.97;4996159;28;19921;-70
2022/09/15 01:41:16;;;;;;;;;;;;;;;-142.75;100.00;76273.06;4996212;28;20384;-70
2022/09/15 01:43:48;;;;;;;;;;;;;;;-142.75;100.00;76269.13;4996116;28;19949;-69
2022/09/15 01:46:15;;;;;;;;;;;;;;;-142.75;100.00;76265.19;4996013;28;19914;-69
2022/09/15 01:48:41;;;;;;;;;;;;;;;-142.75;100.00;76267.16;4995672;28;19913;-69
2022/09/15 01:51:07;;;;;;;;;;;;;;;-142.75;100.00;76263.22;4995965;28;20331;-69
2022/09/15 01:53:32;;;;;;;;;;;;;;;-142.75;100.00;76263.22;4995926;28;19941;-69
2022/09/15 01:56:09;;;;;;;;;;;;;;;-142.75;100.00;76259.28;4995889;28;20368;-70
2022/09/15 01:58:35;;;;;;;;;;;;;;;-142.75;100.00;76267.16;4995451;28;19988;-70
2022/09/15 02:01:16;;;;;;;;;;;;;;;-142.75;100.00;76290.78;4995620;28;19914;-69
2022/09/15 02:03:43;;;;;;;;;;;;;;;-142.75;100.00;76294.72;4995689;28;19917;-69
2022/09/15 02:06:13;;;;;;;;;;;;;;;-142.75;100.00;76286.84;4995699;28;20001;-69
2022/09/15 02:09:05;;;;;;;;;;;;;;;-142.75;100.00;76302.59;4995504;28;19913;-69
2022/09/15 02:11:31;;;;;;;;;;;;;;;-142.75;100.00;76302.59;4992291;28;19918;-69
2022/09/15 02:14:02;;;;;;;;;;;;;;;-142.75;100.00;76304.56;4978149;28;19936;-69
2022/09/15 02:16:30;;;;;;;;;;;;;;;-142.75;100.00;76302.59;4995445;28;19914;-69
2022/09/15 02:18:57;;;;;;;;;;;;;;;-142.75;100.00;76282.91;4995400;28;19981;-70
2022/09/15 02:21:28;;;;;;;;;;;;;;;-142.75;100.00;76284.88;4995356;28;19914;-69
2022/09/15 02:23:56;;;;;;;;;;;;;;;-142.75;100.00;76290.78;4995371;28;19914;-68
2022/09/15 02:26:24;;;;;;;;;;;;;;;-142.75;100.00;76282.91;4995352;28;19917;-70
2022/09/15 02:28:50;;;;;;;;;;;;;;;-142.75;100.00;76286.84;4994987;28;19939;-70
2022/09/15 02:31:17;;;;;;;;;;;;;;;-142.75;100.00;76288.81;4995156;28;20283;-69
2022/09/15 02:33:48;;;;;;;;;;;;;;;-142.75;100.00;76284.88;4994179;28;19929;-70
2022/09/15 02:36:16;;;;;;;;;;;;;;;-142.75;100.00;76284.88;4995185;28;19928;-70
2022/09/15 02:38:45;;;;;;;;;;;;;;;-142.75;100.00;76282.91;4994701;28;19918;-70
2022/09/15 02:41:12;;;;;;;;;;;;;;;-142.75;100.00;76304.56;4994957;28;19917;-69
2022/09/15 02:43:43;;;;;;;;;;;;;;;-142.75;100.00;76304.56;4994973;28;19913;-69
2022/09/15 02:46:08;;;;;;;;;;;;;;;-142.75;100.00;76308.50;4977517;28;19914;-69
2022/09/15 02:48:34;;;;;;;;;;;;;;;-142.75;100.00;76318.34;4994759;28;20454;-70
2022/09/15 02:51:00;;;;;;;;;;;;;;;-142.75;100.00;76332.13;4994719;28;19950;-70
2022/09/15 02:53:25;;;;;;;;;;;;;;;-142.75;100.00;76318.34;4994813;28;20068;-69
2022/09/15 02:55:50;;;;;;;;;;;;;;;-142.75;100.00;76318.34;4994870;28;19914;-70
2022/09/15 02:58:15;;;;;;;;;;;;;;;-142.75;100.00;76314.41;4994295;28;20364;-69
2022/09/15 03:00:41;;;;;;;;;;;;;;;-142.75;100.00;76316.38;4994533;28;20390;-69
2022/09/15 03:03:07;;;;;;;;;;;;;;;-142.75;100.00;76304.56;4994663;28;19972;-70
2022/09/15 03:05:32;;;;;;;;;;;;;;;-142.75;100.00;76298.66;4994942;28;19943;-68
2022/09/15 03:07:57;;;;;;;;;;;;;;;-142.75;100.00;76290.78;4994395;28;19921;-69
2022/09/15 03:10:24;;;;;;;;;;;;;;;-142.75;100.00;76286.84;4994272;28;20303;-68
2022/09/15 03:12:50;;;;;;;;;;;;;;;-142.75;100.00;76292.75;4994390;28;19913;-68
2022/09/15 03:15:17;;;;;;;;;;;;;;;-142.75;100.00;76314.41;4994332;28;20057;-68
2022/09/15 03:17:45;;;;;;;;;;;;;;;-142.75;100.00;76310.47;4993938;28;19980;-68
2022/09/15 03:20:11;;;;;;;;;;;;;;;-142.75;100.00;76320.31;4994376;28;20312;-68
2022/09/15 03:22:37;;;;;;;;;;;;;;;-142.75;100.00;76322.28;4976885;28;19918;-68
2022/09/15 03:25:04;;;;;;;;;;;;;;;-142.75;100.00;76328.19;4994209;28;20024;-68
2022/09/15 03:27:30;;;;;;;;;;;;;;;-142.75;100.00;76328.19;4993866;28;19914;-68
2022/09/15 03:29:55;;;;;;;;;;;;;;;-142.75;100.00;76334.09;4976566;28;19914;-68
2022/09/15 03:32:20;;;;;;;;;;;;;;;-142.75;100.00;76341.97;4994198;28;20020;-68
2022/09/15 03:34:45;;;;;;;;;;;;;;;-142.75;100.00;76349.81;4994007;28;19920;-68
2022/09/15 03:37:11;;;;;;;;;;;;;;;-142.75;100.00;76361.63;4993545;28;20355;-67
2022/09/15 03:39:36;;;;;;;;;;;;;;;-142.75;100.00;76361.63;4993949;28;19914;-68
2022/09/15 03:42:01;;;;;;;;;;;;;;;-142.75;100.00;76363.59;4993964;28;19918;-68
2022/09/15 03:44:26;;;;;;;;;;;;;;;-142.75;100.00;76347.84;4993750;28;20362;-68
2022/09/15 03:46:52;;;;;;;;;;;;;;;-142.75;100.00;76334.09;4993409;28;20295;-68
2022/09/15 03:49:17;;;;;;;;;;;;;;;-142.75;100.00;76340.00;4993743;28;19918;-68
2022/09/15 03:51:42;;;;;;;;;;;;;;;-142.75;100.00;76338.03;4993658;28;19914;-68
2022/09/15 03:54:07;;;;;;;;;;;;;;;-142.75;100.00;76349.81;4993748;28;19914;-68
2022/09/15 03:56:33;;;;;;;;;;;;;;;-142.75;100.00;76341.97;4993402;28;19941;-68
2022/09/15 03:59:02;;;;;;;;;;;;;;;-142.75;100.00;76334.09;4993388;28;19918;-68
2022/09/15 04:01:28;;;;;;;;;;;;;;;-142.75;100.00;76341.97;4993524;28;19914;-68
2022/09/15 04:03:54;;;;;;;;;;;;;;;-142.75;100.00;76340.00;4993429;28;20343;-69
2022/09/15 04:06:19;;;;;;;;;;;;;;;-142.75;100.00;76341.97;4993422;28;19917;-68
2022/09/15 04:08:45;;;;;;;;;;;;;;;-142.75;100.00;76343.94;4993258;28;20335;-68
2022/09/15 04:11:10;;;;;;;;;;;;;;;-142.75;100.00;76345.91;4960786;28;19972;-69
2022/09/15 04:13:36;;;;;;;;;;;;;;;-142.75;100.00;76338.03;4993308;28;19913;-69
2022/09/15 04:16:06;;;;;;;;;;;;;;;-142.75;100.00;76345.91;4993286;28;19924;-69
2022/09/15 04:18:33;;;;;;;;;;;;;;;-142.75;100.00;76357.69;4992857;28;19928;-70
2022/09/15 04:20:58;;;;;;;;;;;;;;;-142.75;100.00;76359.66;4993237;28;19914;-70
2022/09/15 04:23:24;;;;;;;;;;;;;;;-142.75;100.00;76351.81;4993257;28;19914;-69
2022/09/15 04:26:15;;;;;;;;;;;;;;;-142.75;100.00;76345.91;4975674;28;19957;-70
2022/09/15 04:28:40;;;;;;;;;;;;;;;-142.75;100.00;76332.13;4972739;28;20380;-69
2022/09/15 04:31:12;;;;;;;;;;;;;;;-142.75;100.00;76338.03;4993783;28;19941;-70
2022/09/15 04:33:39;;;;;;;;;;;;;;;-142.75;100.00;76345.91;4995062;28;19914;-70
2022/09/15 04:36:06;;;;;;;;;;;;;;;-142.75;100.00;76324.25;4995183;28;19913;-69
2022/09/15 04:38:31;;;;;;;;;;;;;;;-142.75;100.00;76318.34;5012133;28;19956;-70
2022/09/15 04:40:57;;;;;;;;;;;;;;;-142.75;100.00;76310.47;5012515;28;20354;-69
2022/09/15 04:43:23;;;;;;;;;;;;;;;-142.75;100.00;76302.59;5012704;28;20402;-70
2022/09/15 04:45:48;;;;;;;;;;;;;;;-142.75;100.00;76328.19;5012444;28;19944;-70
2022/09/15 04:48:13;;;;;;;;;;;;;;;-142.75;100.00;76338.03;4994657;28;20272;-70
2022/09/15 04:50:39;;;;;;;;;;;;;;;-142.75;100.00;76336.06;5012362;28;20240;-70
2022/09/15 04:53:05;;;;;;;;;;;;;;;-142.75;100.00;76347.84;5012448;28;19913;-70
2022/09/15 04:55:31;;;;;;;;;;;;;;;-142.75;100.00;76341.97;5012408;28;20433;-70
2022/09/15 04:57:56;;;;;;;;;;;;;;;-142.75;100.00;76326.22;5014452;28;19969;-70
2022/09/15 05:00:22;;;;;;;;;;;;;;;-142.75;100.00;76314.41;5016239;28;19918;-69
2022/09/15 05:02:47;;;;;;;;;;;;;;;-142.75;100.00;76298.66;5016491;28;19988;-70
2022/09/15 05:05:12;;;;;;;;;;;;;;;-142.75;100.00;76300.63;5016411;28;19913;-70
2022/09/15 05:07:37;;;;;;;;;;;;;;;-142.75;100.00;76294.72;5016100;28;19920;-70
2022/09/15 05:10:03;;;;;;;;;;;;;;;-142.75;100.00;76298.66;5016136;28;19918;-69
2022/09/15 05:12:28;;;;;;;;;;;;;;;-142.75;100.00;76300.63;5016300;28;19917;-70
2022/09/15 05:14:53;;;;;;;;;;;;;;;-142.75;100.00;76294.72;5016170;28;19956;-68
2022/09/15 05:17:18;;;;;;;;;;;;;;;-142.75;100.00;76298.66;5015800;28;19917;-71
2022/09/15 05:19:45;;;;;;;;;;;;;;;-142.75;100.00;76290.78;5015981;28;19914;-70
2022/09/15 05:22:10;;;;;;;;;;;;;;;-142.75;100.00;76302.59;5016428;28;20302;-68
2022/09/15 05:24:35;;;;;;;;;;;;;;;-142.75;100.00;76306.53;5016030;28;19914;-70
2022/09/15 05:27:00;;;;;;;;;;;;;;;-142.75;100.00;76304.56;5015684;28;19918;-70
2022/09/15 05:29:25;;;;;;;;;;;;;;;-142.75;100.00;76316.38;4998277;28;19963;-70
2022/09/15 05:31:51;;;;;;;;;;;;;;;-142.75;100.00;76312.44;5015849;28;20328;-69
2022/09/15 05:34:16;;;;;;;;;;;;;;;-142.75;100.00;76300.63;5015922;28;20383;-69
2022/09/15 05:36:41;;;;;;;;;;;;;;;-142.75;100.00;76282.91;5015528;28;19924;-68
2022/09/15 05:39:06;;;;;;;;;;;;;;;-142.75;100.00;76284.88;5015728;28;19917;-67
2022/09/15 05:41:31;;;;;;;;;;;;;;;-142.75;100.00;76288.81;5015637;28;20387;-69
2022/09/15 05:43:57;;;;;;;;;;;;;;;-142.75;100.00;76286.84;5015609;28;19973;-70
2022/09/15 05:46:24;;;;;;;;;;;;;;;-142.75;100.00;76296.69;5015597;28;20423;-70
2022/09/15 05:48:50;;;;;;;;;;;;;;;-142.75;100.00;76306.53;5015390;28;19953;-69
2022/09/15 05:51:15;;;;;;;;;;;;;;;-142.75;100.00;76320.31;5014590;28;19991;-69
2022/09/15 05:53:40;;;;;;;;;;;;;;;-142.75;100.00;76349.81;4995877;28;19917;-69
2022/09/15 05:56:09;;;;;;;;;;;;;;;-142.75;100.00;76355.72;4995850;28;19914;-69
2022/09/15 05:58:34;;;;;;;;;;;;;;;-142.75;100.00;76345.91;4977879;28;20382;-69
2022/09/15 06:01:06;;;;;;;;;;;;;;;-142.75;100.00;76355.72;4995764;28;19913;-69
2022/09/15 06:03:32;;;;;;;;;;;;;;;-142.75;100.00;76347.84;4995806;28;19945;-71
2022/09/15 06:05:58;;;;;;;;;;;;;;;-142.75;100.00;76334.09;4978203;28;19913;-70
2022/09/15 06:08:23;;;;;;;;;;;;;;;-142.75;100.00;76318.34;4995334;28;20012;-69
2022/09/15 06:10:48;;;;;;;;;;;;;;;-142.75;100.00;76312.44;4995323;28;20368;-70
2022/09/15 06:13:13;;;;;;;;;;;;;;;-142.75;100.00;76292.75;4995526;28;19996;-70
2022/09/15 06:15:39;;;;;;;;;;;;;;;-142.75;100.00;76284.88;4995502;28;20343;-69
2022/09/15 06:18:04;;;;;;;;;;;;;;;-142.75;100.00;76280.94;4995101;28;19925;-69
2022/09/15 06:20:29;;;;;;;;;;;;;;;-142.75;100.00;76277.00;4995384;28;19948;-70
2022/09/15 06:22:55;;;;;;;;;;;;;;;-142.75;100.00;76273.06;4977849;28;20410;-69
2022/09/15 06:25:20;;;;;;;;;;;;;;;-142.75;100.00;76267.16;4995311;28;19940;-70
2022/09/15 06:27:47;;;;;;;;;;;;;;;-142.75;100.00;76257.31;4994996;28;19914;-69
2022/09/15 06:30:13;;;;;;;;;;;;;;;-142.75;100.00;76253.38;4995269;28;20068;-69
2022/09/15 06:32:38;;;;;;;;;;;;;;;-142.75;100.00;76241.56;4995275;28;20388;-70
2022/09/15 06:35:06;;;;;;;;;;;;;;;-142.75;100.00;76241.56;4995215;28;19914;-70
2022/09/15 06:37:32;;;;;;;;;;;;;;;-142.75;100.00;76255.34;4994829;28;20394;-70
2022/09/15 06:39:57;;;;;;;;;;;;;;;-142.75;100.00;76269.13;4995037;28;19913;-70
2022/09/15 06:42:22;;;;;;;;;;;;;;;-142.75;100.00;76278.97;4994975;28;20384;-69
2022/09/15 06:44:48;;;;;;;;;;;;;;;-142.75;100.00;76294.72;4995017;28;20447;-69
2022/09/15 06:47:13;;;;;;;;;;;;;;;-142.75;100.00;76302.59;4994633;28;20384;-69
2022/09/15 06:49:39;;;;;;;;;;;;;;;-142.75;100.00;76296.69;4994896;28;20265;-70
2022/09/15 06:52:04;;;;;;;;;;;;;;;-142.75;100.00;76288.81;4994759;28;19921;-70
2022/09/15 06:54:30;;;;;;;;;;;;;;;-142.75;100.00;76282.91;4994761;28;20291;-70
2022/09/15 06:56:55;;;;;;;;;;;;;;;-142.75;100.00;76282.91;4994432;28;19917;-69
2022/09/15 06:59:22;;;;;;;;;;;;;;;-142.75;100.00;76269.13;4994678;28;19925;-69
2022/09/15 07:01:51;;;;;;;;;;;;;;;-142.75;100.00;76251.41;4994602;28;20364;-71
2022/09/15 07:04:16;;;;;;;;;;;;;;;-142.75;100.00;76267.16;4994659;28;19997;-70
2022/09/15 07:06:42;;;;;;;;;;;;;;;-142.75;100.00;76245.50;4994270;28;20419;-68
2022/09/15 07:09:07;;;;;;;;;;;;;;;-142.75;100.00;76239.59;4976974;28;19940;-70
2022/09/15 07:11:32;;;;;;;;;;;;;;;-142.75;100.00;76227.78;4994264;28;19940;-69
2022/09/15 07:13:58;;;;;;;;;;;;;;;-142.75;100.00;76225.81;4994442;28;19918;-70
2022/09/15 07:16:24;;;;;;;;;;;;;;;-142.75;100.00;76223.84;4976864;28;19913;-68
2022/09/15 07:18:50;;;;;;;;;;;;;;;-142.75;100.00;76221.88;4994034;28;19954;-70
2022/09/15 07:21:19;;;;;;;;;;;;;;;-142.75;100.00;76200.25;4993744;28;19974;-69
2022/09/15 07:23:44;;;;;;;;;;;;;;;-142.75;100.00;76186.47;4994227;28;19920;-70
2022/09/15 07:26:12;;;;;;;;;;;;;;;-142.75;100.00;76180.56;4994134;28;20012;-70
2022/09/15 07:28:38;;;;;;;;;;;;;;;-142.75;100.00;76164.81;4993998;28;19913;-70
2022/09/15 07:31:04;;;;;;;;;;;;;;;-142.75;100.00;76160.88;4976560;28;19957;-68
2022/09/15 07:33:29;;;;;;;;;;;;;;;-142.75;100.00;76158.91;4976674;28;19914;-69
2022/09/15 07:35:55;;;;;;;;;;;;;;;-142.75;100.00;76139.22;4994050;28;19921;-69
2022/09/15 07:38:20;;;;;;;;;;;;;;;-142.75;100.00;76125.44;5004871;28;19921;-69
2022/09/15 07:40:47;;;;;;;;;;;;;;;-142.75;100.00;76135.28;5013413;28;20359;-69
2022/09/15 07:43:13;;;;;;;;;;;;;;;-142.75;100.00;76135.28;5013490;28;19913;-69
2022/09/15 07:45:38;;;;;;;;;;;;;;;-142.75;100.00;76156.94;5004267;28;19971;-68
2022/09/15 07:48:03;;;;;;;;;;;;;;;-142.75;100.00;76166.78;4983331;28;19914;-70
2022/09/15 07:50:29;;;;;;;;;;;;;;;-142.75;100.00;76192.38;5000956;28;20012;-70
2022/09/15 07:52:55;;;;;;;;;;;;;;;-142.75;100.00;76225.81;4976056;28;19918;-69
2022/09/15 07:55:20;;;;;;;;;;;;;;;-142.75;100.00;76269.13;5005827;28;19920;-69
2022/09/15 07:57:45;;;;;;;;;;;;;;;-142.75;100.00;76308.50;5005786;28;19922;-67
2022/09/15 08:00:10;;;;;;;;;;;;;;;-142.75;100.00;76310.47;5002689;28;20359;-67
2022/09/15 08:02:36;;;;;;;;;;;;;;;-142.75;100.00;76312.44;5003412;28;20414;-70
2022/09/15 08:05:01;;;;;;;;;;;;;;;-142.75;100.00;76322.28;5003193;28;19918;-69
2022/09/15 08:07:26;;;;;;;;;;;;;;;-142.75;100.00;76340.00;5002263;28;19913;-69
2022/09/15 08:09:51;;;;;;;;;;;;;;;-142.75;100.00;76330.16;5003392;28;20525;-68
2022/09/15 08:12:16;;;;;;;;;;;;;;;-142.75;100.00;76324.25;4988176;28;20372;-67
2022/09/15 08:14:42;;;;;;;;;;;;;;;-142.75;100.00;76310.47;4980079;28;19918;-68
2022/09/15 08:17:07;;;;;;;;;;;;;;;-142.75;100.00;76308.50;4978023;28;19914;-70
2022/09/15 08:19:33;;;;;;;;;;;;;;;-142.75;100.00;76278.97;4985712;28;19925;-68
2022/09/15 08:21:59;;;;;;;;;;;;;;;-142.75;100.00;76215.97;4982862;28;19914;-70
2022/09/15 08:24:24;;;;;;;;;;;;;;;-142.75;100.00;76172.69;4980994;28;20009;-67
2022/09/15 08:26:50;;;;;;;;;;;;;;;-142.75;100.00;76101.81;4975324;28;19996;-69
2022/09/15 08:29:16;;;;;;;;;;;;;;;-142.75;100.00;76074.25;4979243;28;19914;-70
2022/09/15 08:31:43;;;;;;;;;;;;;;;-142.75;100.00;76007.34;4976612;28;19925;-69
2022/09/15 08:34:09;;;;;;;;;;;;;;;-142.75;100.00;75934.53;4985107;28;19960;-69
2022/09/15 08:36:35;;;;;;;;;;;;;;;-142.75;100.00;75842.03;4991988;28;20269;-68
2022/09/15 08:39:01;;;;;;;;;;;;;;;-142.75;100.00;75845.97;4992305;28;19944;-70
2022/09/15 08:41:29;;;;;;;;;;;;;;;-142.75;100.00;75906.97;4989113;28;20404;-70
2022/09/15 08:44:16;;;;;;;;;;;;;;;-142.75;100.00;75981.75;4990931;28;20029;-70
2022/09/15 08:46:47;;;;;;;;;;;;;;;-142.75;100.00;76062.47;4986445;28;19925;-70
2022/09/15 08:49:18;;;;;;;;;;;;;;;-142.75;100.00;76105.75;4977262;28;20388;-69
2022/09/15 08:51:48;;;;;;;;;;;;;;;-142.75;100.00;76121.50;4983638;28;19914;-69
2022/09/15 08:54:24;;;;;;;;;;;;;;;-142.75;100.00;76072.31;4992044;28;19914;-70
2022/09/15 08:56:50;;;;;;;;;;;;;;;-142.75;100.00;76064.44;4992165;28;19920;-70
2022/09/15 08:59:16;;;;;;;;;;;;;;;-142.75;100.00;76030.97;4992232;28;20012;-70
2022/09/15 09:01:48;;;;;;;;;;;;;;;-142.75;100.00;76017.19;4992894;28;20511;-70
2022/09/15 09:04:32;;;;;;;;;;;;;;;-142.75;100.00;76027.03;4990377;28;19928;-69
2022/09/15 09:07:16;;;;;;;;;;;;;;;-142.75;100.00;76032.94;4997058;28;19964;-69
2022/09/15 09:09:46;;;;;;;;;;;;;;;-142.75;100.00;76027.03;5000359;28;20045;-70
2022/09/15 09:12:17;;;;;;;;;;;;;;;-142.75;100.00;76007.34;4983403;28;19918;-69
2022/09/15 09:15:01;;;;;;;;;;;;;;;-142.75;100.00;76019.16;5001740;28;20275;-69
2022/09/15 09:17:29;;;;;;;;;;;;;;;-142.75;100.00;76029.00;4999018;28;19918;-70
2022/09/15 09:20:12;;;;;;;;;;;;;;;-142.75;100.00;76056.56;4992495;28;19914;-67
2022/09/15 09:22:40;;;;;;;;;;;;;;;-142.75;100.00;76058.53;4992414;28;20403;-69
2022/09/15 09:25:09;;;;;;;;;;;;;;;-142.75;100.00;76050.66;5002752;28;19968;-70
2022/09/15 09:27:34;;;;;;;;;;;;;;;-142.75;100.00;76076.22;4981196;28;19953;-69
2022/09/15 09:29:59;;;;;;;;;;;;;;;-142.75;100.00;76066.41;5001719;28;19952;-69
2022/09/15 09:32:26;;;;;;;;;;;;;;;-142.75;100.00;76042.78;4991988;28;20307;-70
2022/09/15 09:35:09;;;;;;;;;;;;;;;-142.75;100.00;76048.69;5002786;28;20395;-69
2022/09/15 09:37:35;;;;;;;;;;;;;;;-142.75;100.00;76030.97;4998619;28;19922;-69
2022/09/15 09:40:00;;;;;;;;;;;;;;;-142.75;100.00;76013.25;4975413;28;20269;-70
2022/09/15 09:42:30;;;;;;;;;;;;;;;-142.75;100.00;75995.53;5002757;28;20419;-70
2022/09/15 09:44:55;;;;;;;;;;;;;;;-142.75;100.00;75993.56;5005181;28;20376;-70
2022/09/15 09:47:25;;;;;;;;;;;;;;;-142.75;100.00;75979.78;5004527;28;19924;-70
2022/09/15 09:49:50;;;;;;;;;;;;;;;-142.75;100.00;75985.69;5005956;28;19920;-70
2022/09/15 09:52:32;;;;;;;;;;;;;;;-142.75;100.00;75977.81;4995699;28;19914;-70
2022/09/15 09:55:20;;;;;;;;;;;;;;;-142.75;100.00;75977.81;4995963;28;19941;-70
2022/09/15 09:57:46;;;;;;;;;;;;;;;-142.75;100.00;75940.44;4995559;28;19918;-70
2022/09/15 10:00:29;;;;;;;;;;;;;;;-142.75;100.00;75924.69;4981633;28;19928;-69
2022/09/15 10:02:54;;;;;;;;;;;;;;;-142.75;100.00;75908.94;4994822;28;19928;-70
2022/09/15 10:05:19;;;;;;;;;;;;;;;-142.75;100.00;75861.69;4995212;28;19914;-70
2022/09/15 10:07:45;;;;;;;;;;;;;;;-142.75;100.00;75853.84;4993043;28;19992;-70
2022/09/15 10:10:18;;;;;;;;;;;;;;;-142.75;100.00;75830.22;4995004;28;19917;-70
2022/09/15 10:12:44;;;;;;;;;;;;;;;-142.75;100.00;75794.78;4995638;28;19918;-70
2022/09/15 10:15:20;;;;;;;;;;;;;;;-142.75;100.00;75739.69;5038874;22;20279;-69
2022/09/15 10:17:48;;;;;;;;;;;;;;;-142.75;100.00;75659.00;5029780;28;19917;-69
2022/09/15 10:20:31;;;;;;;;;;;;;;;-142.75;100.00;75607.81;5034306;28;20009;-69
2022/09/15 10:23:08;;;;;;;;;;;;;;;-142.75;100.00;75574.38;5034855;28;19917;-69
2022/09/15 10:25:35;;;;;;;;;;;;;;;-142.75;97.12;75633.41;5034661;28;20651;-69
2022/09/15 10:28:00;;;;;;;;;;;;;;;-142.75;97.41;75688.50;5034432;28;20295;-69
2022/09/15 10:30:25;;;;;;;;;;;;;;;-142.75;100.00;75696.38;5034605;28;19940;-69
2022/09/15 10:32:51;;;;;;;;;;;;;;;-142.75;100.00;75757.41;5033215;28;19917;-69
2022/09/15 10:35:17;;;;;;;;;;;;;;;-142.75;100.00;75782.97;5026857;28;19917;-69
2022/09/15 10:38:01;;;;;;;;;;;;;;;-142.75;100.00;75769.19;5022465;28;19971;-69
2022/09/15 10:40:30;;;;;;;;;;;;;;;-142.75;100.00;75773.13;5014694;28;20008;-69
2022/09/15 10:43:12;;;;;;;;;;;;;;;-142.75;97.25;75751.50;5015405;28;19916;-69
2022/09/15 10:45:38;;;;;;;;;;;;;;;-142.75;97.01;75731.81;5031910;28;20455;-69
2022/09/15 10:48:26;;;;;;;;;;;;;;;-142.75;92.53;75690.47;5033426;28;20007;-69
2022/09/15 10:50:58;;;;;;;;;;;;;;;-142.75;90.91;75657.03;5027860;28;19970;-69
2022/09/15 10:53:35;;;;;;;;;;;;;;;-142.75;84.12;75660.97;5033568;28;19983;-69
2022/09/15 10:56:00;;;;;;;;;;;;;;;-142.75;80.66;75670.81;5032658;28;19982;-69
2022/09/15 10:58:25;;;;;;;;;;;;;;;-142.75;76.28;75684.56;5033155;28;20401;-69
2022/09/15 11:00:56;;;;;;;;;;;;;;;-142.75;74.15;75721.97;5033388;28;19913;-69
2022/09/15 11:03:21;;;;;;;;;;;;;;;-142.75;77.47;75727.88;5033482;28;19913;-69
2022/09/15 11:05:53;;;;;;;;;;;;;;;-142.75;79.40;75727.88;5031962;28;20429;-69
2022/09/15 11:08:42;;;;;;;;;;;;;;;-142.75;77.79;75767.22;5033034;28;19956;-69
2022/09/15 11:11:19;;;;;;;;;;;;;;;-142.75;78.99;75802.66;5033259;28;19913;-67
2022/09/15 11:13:49;;;;;;;;;;;;;;;-142.75;77.90;75830.22;5027965;28;20386;-67
2022/09/15 11:16:29;;;;;;;;;;;;;;;-142.75;78.28;75842.03;5032988;28;19921;-69
2022/09/15 11:19:06;;;;;;;;;;;;;;;-142.75;79.71;75849.91;5032928;28;20012;-69
2022/09/15 11:21:35;;;;;;;;;;;;;;;-142.75;78.64;75849.91;5033149;28;19913;-69
2022/09/15 11:24:16;;;;;;;;;;;;;;;-142.75;78.08;75847.94;5033066;28;19920;-69
2022/09/15 11:26:45;;;;;;;;;;;;;;;-142.75;76.74;75845.97;5032678;28;20298;-69
2022/09/15 11:29:16;;;;;;;;;;;;;;;-142.75;78.28;75849.91;5030456;28;20268;-69
2022/09/15 11:31:45;;;;;;;;;;;;;;;-142.75;81.58;75881.38;5032884;28;20015;-69
2022/09/15 11:34:16;;;;;;;;;;;;;;;-142.75;88.03;75891.22;5022583;28;20004;-67
2022/09/15 11:36:55;;;;;;;;;;;;;;;-142.75;81.29;75901.06;5022659;28;19917;-69
2022/09/15 11:39:22;;;;;;;;;;;;;;;-142.75;83.05;75916.81;5027301;28;19979;-69
2022/09/15 11:41:55;;;;;;;;;;;;;;;-142.75;85.68;75930.59;5026488;28;19923;-69
2022/09/15 11:44:35;;;;;;;;;;;;;;;-142.75;90.07;75954.22;5018984;28;20008;-69
2022/09/15 11:47:03;;;;;;;;;;;;;;;-142.75;91.37;75967.97;5021680;28;19920;-69
2022/09/15 11:49:28;;;;;;;;;;;;;;;-142.75;97.01;75975.84;5021820;28;19921;-69
2022/09/15 11:51:57;;;;;;;;;;;;;;;-142.75;93.30;75975.84;5032273;28;19917;-69
2022/09/15 11:54:28;;;;;;;;;;;;;;;-142.75;97.15;75975.84;5032164;28;20043;-69
2022/09/15 11:56:54;;;;;;;;;;;;;;;-142.75;89.98;75971.91;5033184;28;19913;-69
2022/09/15 11:59:19;;;;;;;;;;;;;;;-142.75;90.92;75966.00;5032216;28;19979;-69
2022/09/15 12:01:49;;;;;;;;;;;;;;;-142.75;89.25;75979.78;5032304;28;19952;-69
2022/09/15 12:04:19;;;;;;;;;;;;;;;-142.75;87.83;75979.78;5031256;28;19916;-69
2022/09/15 12:06:44;;;;;;;;;;;;;;;-142.75;91.22;75999.47;5032027;28;20298;-70
2022/09/15 12:09:14;;;;;;;;;;;;;;;-142.75;91.16;76023.09;5032281;28;19917;-70
2022/09/15 12:11:52;;;;;;;;;;;;;;;-142.75;90.67;76003.41;5032475;28;19917;-69
2022/09/15 12:14:27;;;;;;;;;;;;;;;-142.75;96.68;75999.47;5030198;28;19920;-70
2022/09/15 12:16:52;;;;;;;;;;;;;;;-142.75;98.08;75969.94;5026463;28;19917;-69
2022/09/15 12:19:25;;;;;;;;;;;;;;;-142.75;100.00;75952.25;5030605;28;19936;-69
2022/09/15 12:22:00;;;;;;;;;;;;;;;-142.75;100.00;75940.44;5029415;28;20418;-69
2022/09/15 12:24:39;;;;;;;;;;;;;;;-142.75;100.00;75924.69;5029793;28;20349;-69